sensor_id;sensor_type;location;lat;lon;timestamp;P1;durP1;ratioP1;P2;durP2;ratioP2
25299;SDS011;13241;51.208;4.432;2022-07-23T00:00:19;8.02;;;2.83;;
25299;SDS011;13241;51.208;4.432;2022-07-23T00:02:46;6.35;;;2.80;;
25299;SDS011;13241;51.208;4.432;2022-07-23T00:05:14;4.35;;;2.70;;
25299;SDS011;13241;51.208;4.432;2022-07-23T00:07:41;7.68;;;2.80;;
25299;SDS011;13241;51.208;4.432;2022-07-23T00:10:09;6.25;;;3.20;;
25299;SDS011;13241;51.208;4.432;2022-07-23T00:12:36;5.75;;;3.03;;
25299;SDS011;13241;51.208;4.432;2022-07-23T00:15:17;7.65;;;3.40;;
25299;SDS011;13241;51.208;4.432;2022-07-23T00:17:44;3.38;;;2.10;;
25299;SDS011;13241;51.208;4.432;2022-07-23T00:20:11;7.30;;;3.13;;
25299;SDS011;13241;51.208;4.432;2022-07-23T00:22:45;3.95;;;2.72;;
25299;SDS011;13241;51.208;4.432;2022-07-23T00:25:13;6.03;;;3.03;;
25299;SDS011;13241;51.208;4.432;2022-07-23T00:27:57;7.75;;;3.17;;
25299;SDS011;13241;51.208;4.432;2022-07-23T00:30:28;7.00;;;2.88;;
25299;SDS011;13241;51.208;4.432;2022-07-23T00:32:57;8.52;;;2.72;;
25299;SDS011;13241;51.208;4.432;2022-07-23T00:35:30;7.77;;;3.43;;
25299;SDS011;13241;51.208;4.432;2022-07-23T00:37:58;3.42;;;2.60;;
25299;SDS011;13241;51.208;4.432;2022-07-23T00:40:27;9.63;;;2.88;;
25299;SDS011;13241;51.208;4.432;2022-07-23T00:42:55;3.78;;;2.63;;
25299;SDS011;13241;51.208;4.432;2022-07-23T00:45:22;7.07;;;2.85;;
25299;SDS011;13241;51.208;4.432;2022-07-23T00:47:49;6.30;;;2.90;;
25299;SDS011;13241;51.208;4.432;2022-07-23T00:50:16;8.25;;;3.60;;
25299;SDS011;13241;51.208;4.432;2022-07-23T00:52:43;6.00;;;2.90;;
25299;SDS011;13241;51.208;4.432;2022-07-23T00:55:11;7.68;;;3.42;;
25299;SDS011;13241;51.208;4.432;2022-07-23T00:57:39;6.82;;;3.00;;
25299;SDS011;13241;51.208;4.432;2022-07-23T01:00:08;6.47;;;3.30;;
25299;SDS011;13241;51.208;4.432;2022-07-23T01:02:38;6.28;;;3.22;;
25299;SDS011;13241;51.208;4.432;2022-07-23T01:05:05;8.98;;;2.83;;
25299;SDS011;13241;51.208;4.432;2022-07-23T01:07:33;10.73;;;3.20;;
25299;SDS011;13241;51.208;4.432;2022-07-23T01:10:00;8.25;;;3.28;;
25299;SDS011;13241;51.208;4.432;2022-07-23T01:12:30;7.22;;;3.00;;
25299;SDS011;13241;51.208;4.432;2022-07-23T01:14:58;6.15;;;3.28;;
25299;SDS011;13241;51.208;4.432;2022-07-23T01:17:28;3.80;;;2.53;;
25299;SDS011;13241;51.208;4.432;2022-07-23T01:19:54;10.38;;;4.18;;
25299;SDS011;13241;51.208;4.432;2022-07-23T01:22:21;6.72;;;3.22;;
25299;SDS011;13241;51.208;4.432;2022-07-23T01:24:49;5.25;;;3.08;;
25299;SDS011;13241;51.208;4.432;2022-07-23T01:27:21;6.05;;;3.10;;
25299;SDS011;13241;51.208;4.432;2022-07-23T01:29:52;6.28;;;3.03;;
25299;SDS011;13241;51.208;4.432;2022-07-23T01:32:21;3.92;;;2.67;;
25299;SDS011;13241;51.208;4.432;2022-07-23T01:34:48;8.50;;;3.20;;
25299;SDS011;13241;51.208;4.432;2022-07-23T01:37:15;11.75;;;3.78;;
25299;SDS011;13241;51.208;4.432;2022-07-23T01:39:43;7.68;;;3.60;;
25299;SDS011;13241;51.208;4.432;2022-07-23T01:42:12;6.18;;;3.65;;
25299;SDS011;13241;51.208;4.432;2022-07-23T01:44:40;7.18;;;3.47;;
25299;SDS011;13241;51.208;4.432;2022-07-23T01:47:15;10.60;;;4.05;;
25299;SDS011;13241;51.208;4.432;2022-07-23T01:49:42;5.57;;;3.75;;
25299;SDS011;13241;51.208;4.432;2022-07-23T01:52:40;7.65;;;4.07;;
25299;SDS011;13241;51.208;4.432;2022-07-23T01:55:07;6.68;;;3.45;;
25299;SDS011;13241;51.208;4.432;2022-07-23T01:57:45;9.98;;;3.75;;
25299;SDS011;13241;51.208;4.432;2022-07-23T02:00:12;17.63;;;3.78;;
25299;SDS011;13241;51.208;4.432;2022-07-23T02:02:44;5.95;;;3.50;;
25299;SDS011;13241;51.208;4.432;2022-07-23T02:05:11;4.10;;;2.90;;
25299;SDS011;13241;51.208;4.432;2022-07-23T02:07:38;12.45;;;3.65;;
25299;SDS011;13241;51.208;4.432;2022-07-23T02:10:05;5.80;;;3.35;;
25299;SDS011;13241;51.208;4.432;2022-07-23T02:12:32;8.85;;;3.67;;
25299;SDS011;13241;51.208;4.432;2022-07-23T02:14:59;11.60;;;3.95;;
25299;SDS011;13241;51.208;4.432;2022-07-23T02:17:27;5.75;;;3.50;;
25299;SDS011;13241;51.208;4.432;2022-07-23T02:19:54;5.15;;;3.30;;
25299;SDS011;13241;51.208;4.432;2022-07-23T02:22:21;7.00;;;3.40;;
25299;SDS011;13241;51.208;4.432;2022-07-23T02:24:48;6.43;;;3.42;;
25299;SDS011;13241;51.208;4.432;2022-07-23T02:27:15;6.72;;;3.17;;
25299;SDS011;13241;51.208;4.432;2022-07-23T02:29:42;6.53;;;3.08;;
25299;SDS011;13241;51.208;4.432;2022-07-23T02:32:09;7.43;;;3.42;;
25299;SDS011;13241;51.208;4.432;2022-07-23T02:34:36;11.50;;;3.38;;
25299;SDS011;13241;51.208;4.432;2022-07-23T02:37:03;8.82;;;3.72;;
25299;SDS011;13241;51.208;4.432;2022-07-23T02:39:31;5.55;;;3.15;;
25299;SDS011;13241;51.208;4.432;2022-07-23T02:41:58;9.98;;;2.85;;
25299;SDS011;13241;51.208;4.432;2022-07-23T02:44:25;6.22;;;3.38;;
25299;SDS011;13241;51.208;4.432;2022-07-23T02:46:53;7.65;;;3.55;;
25299;SDS011;13241;51.208;4.432;2022-07-23T02:49:19;7.93;;;3.10;;
25299;SDS011;13241;51.208;4.432;2022-07-23T02:51:49;6.72;;;2.90;;
25299;SDS011;13241;51.208;4.432;2022-07-23T02:54:16;7.97;;;3.70;;
25299;SDS011;13241;51.208;4.432;2022-07-23T02:56:43;6.88;;;3.35;;
25299;SDS011;13241;51.208;4.432;2022-07-23T02:59:10;9.13;;;3.55;;
25299;SDS011;13241;51.208;4.432;2022-07-23T03:01:38;5.40;;;3.42;;
25299;SDS011;13241;51.208;4.432;2022-07-23T03:04:06;7.68;;;3.97;;
25299;SDS011;13241;51.208;4.432;2022-07-23T03:06:33;6.45;;;3.60;;
25299;SDS011;13241;51.208;4.432;2022-07-23T03:09:00;9.68;;;3.30;;
25299;SDS011;13241;51.208;4.432;2022-07-23T03:11:27;6.72;;;3.60;;
25299;SDS011;13241;51.208;4.432;2022-07-23T03:13:54;7.00;;;4.25;;
25299;SDS011;13241;51.208;4.432;2022-07-23T03:16:22;6.25;;;3.55;;
25299;SDS011;13241;51.208;4.432;2022-07-23T03:18:49;9.85;;;4.97;;
25299;SDS011;13241;51.208;4.432;2022-07-23T03:21:16;9.70;;;4.50;;
25299;SDS011;13241;51.208;4.432;2022-07-23T03:23:43;9.80;;;4.32;;
25299;SDS011;13241;51.208;4.432;2022-07-23T03:26:10;9.40;;;3.88;;
25299;SDS011;13241;51.208;4.432;2022-07-23T03:28:38;6.60;;;4.28;;
25299;SDS011;13241;51.208;4.432;2022-07-23T03:31:04;6.10;;;4.25;;
25299;SDS011;13241;51.208;4.432;2022-07-23T03:33:31;7.95;;;3.53;;
25299;SDS011;13241;51.208;4.432;2022-07-23T03:35:58;7.97;;;3.75;;
25299;SDS011;13241;51.208;4.432;2022-07-23T03:38:28;5.72;;;3.80;;
25299;SDS011;13241;51.208;4.432;2022-07-23T03:40:55;11.35;;;4.53;;
25299;SDS011;13241;51.208;4.432;2022-07-23T03:43:22;8.95;;;4.72;;
25299;SDS011;13241;51.208;4.432;2022-07-23T03:45:52;8.00;;;3.65;;
25299;SDS011;13241;51.208;4.432;2022-07-23T03:48:18;7.57;;;3.67;;
25299;SDS011;13241;51.208;4.432;2022-07-23T03:50:45;11.98;;;4.00;;
25299;SDS011;13241;51.208;4.432;2022-07-23T03:53:12;7.50;;;4.25;;
25299;SDS011;13241;51.208;4.432;2022-07-23T03:55:39;6.30;;;4.13;;
25299;SDS011;13241;51.208;4.432;2022-07-23T03:58:06;9.60;;;4.05;;
25299;SDS011;13241;51.208;4.432;2022-07-23T04:00:35;8.63;;;3.83;;
25299;SDS011;13241;51.208;4.432;2022-07-23T04:03:02;9.32;;;4.25;;
25299;SDS011;13241;51.208;4.432;2022-07-23T04:05:29;7.03;;;3.70;;
25299;SDS011;13241;51.208;4.432;2022-07-23T04:08:10;10.73;;;4.43;;
25299;SDS011;13241;51.208;4.432;2022-07-23T04:10:41;6.70;;;3.65;;
25299;SDS011;13241;51.208;4.432;2022-07-23T04:13:08;6.10;;;3.70;;
25299;SDS011;13241;51.208;4.432;2022-07-23T04:15:35;5.50;;;3.85;;
25299;SDS011;13241;51.208;4.432;2022-07-23T04:18:03;8.85;;;4.20;;
25299;SDS011;13241;51.208;4.432;2022-07-23T04:20:44;7.43;;;3.70;;
25299;SDS011;13241;51.208;4.432;2022-07-23T04:23:15;7.35;;;3.63;;
25299;SDS011;13241;51.208;4.432;2022-07-23T04:25:42;9.68;;;4.20;;
25299;SDS011;13241;51.208;4.432;2022-07-23T04:28:09;5.63;;;3.15;;
25299;SDS011;13241;51.208;4.432;2022-07-23T04:30:36;6.35;;;3.05;;
25299;SDS011;13241;51.208;4.432;2022-07-23T04:33:06;5.95;;;3.25;;
25299;SDS011;13241;51.208;4.432;2022-07-23T04:35:36;9.38;;;3.67;;
25299;SDS011;13241;51.208;4.432;2022-07-23T04:38:17;6.05;;;3.22;;
25299;SDS011;13241;51.208;4.432;2022-07-23T04:40:46;5.20;;;3.30;;
25299;SDS011;13241;51.208;4.432;2022-07-23T04:43:13;5.95;;;2.65;;
25299;SDS011;13241;51.208;4.432;2022-07-23T04:45:44;9.40;;;3.38;;
25299;SDS011;13241;51.208;4.432;2022-07-23T04:48:11;5.72;;;3.30;;
25299;SDS011;13241;51.208;4.432;2022-07-23T04:50:38;8.10;;;2.97;;
25299;SDS011;13241;51.208;4.432;2022-07-23T04:53:13;9.25;;;3.50;;
25299;SDS011;13241;51.208;4.432;2022-07-23T04:55:41;7.22;;;3.15;;
25299;SDS011;13241;51.208;4.432;2022-07-23T04:58:08;10.05;;;3.78;;
25299;SDS011;13241;51.208;4.432;2022-07-23T05:00:35;6.93;;;3.80;;
25299;SDS011;13241;51.208;4.432;2022-07-23T05:03:02;8.60;;;3.25;;
25299;SDS011;13241;51.208;4.432;2022-07-23T05:05:30;4.00;;;2.72;;
25299;SDS011;13241;51.208;4.432;2022-07-23T05:08:06;6.97;;;3.58;;
25299;SDS011;13241;51.208;4.432;2022-07-23T05:10:37;5.30;;;3.15;;
25299;SDS011;13241;51.208;4.432;2022-07-23T05:13:04;6.35;;;3.30;;
25299;SDS011;13241;51.208;4.432;2022-07-23T05:15:31;5.22;;;3.28;;
25299;SDS011;13241;51.208;4.432;2022-07-23T05:17:58;7.65;;;3.33;;
25299;SDS011;13241;51.208;4.432;2022-07-23T05:20:26;6.47;;;2.95;;
25299;SDS011;13241;51.208;4.432;2022-07-23T05:22:53;12.93;;;3.60;;
25299;SDS011;13241;51.208;4.432;2022-07-23T05:25:20;8.10;;;4.53;;
25299;SDS011;13241;51.208;4.432;2022-07-23T05:27:47;6.22;;;3.03;;
25299;SDS011;13241;51.208;4.432;2022-07-23T05:30:14;10.10;;;3.42;;
25299;SDS011;13241;51.208;4.432;2022-07-23T05:32:44;4.95;;;3.17;;
25299;SDS011;13241;51.208;4.432;2022-07-23T05:35:15;7.20;;;3.50;;
25299;SDS011;13241;51.208;4.432;2022-07-23T05:37:50;4.43;;;3.03;;
25299;SDS011;13241;51.208;4.432;2022-07-23T05:40:19;6.82;;;3.88;;
25299;SDS011;13241;51.208;4.432;2022-07-23T05:42:46;5.60;;;3.53;;
25299;SDS011;13241;51.208;4.432;2022-07-23T05:45:13;8.45;;;3.45;;
25299;SDS011;13241;51.208;4.432;2022-07-23T05:50:24;5.40;;;3.30;;
25299;SDS011;13241;51.208;4.432;2022-07-23T05:52:57;7.35;;;3.17;;
25299;SDS011;13241;51.208;4.432;2022-07-23T05:55:59;8.10;;;3.28;;
25299;SDS011;13241;51.208;4.432;2022-07-23T05:58:29;7.32;;;3.25;;
25299;SDS011;13241;51.208;4.432;2022-07-23T06:00:56;7.40;;;2.75;;
25299;SDS011;13241;51.208;4.432;2022-07-23T06:03:24;5.03;;;2.67;;
25299;SDS011;13241;51.208;4.432;2022-07-23T06:05:51;9.13;;;2.90;;
25299;SDS011;13241;51.208;4.432;2022-07-23T06:08:18;3.95;;;3.05;;
25299;SDS011;13241;51.208;4.432;2022-07-23T06:10:46;7.05;;;3.10;;
25299;SDS011;13241;51.208;4.432;2022-07-23T06:13:13;9.48;;;3.60;;
25299;SDS011;13241;51.208;4.432;2022-07-23T06:15:40;6.05;;;3.80;;
25299;SDS011;13241;51.208;4.432;2022-07-23T06:18:07;5.88;;;3.03;;
25299;SDS011;13241;51.208;4.432;2022-07-23T06:20:34;5.70;;;3.08;;
25299;SDS011;13241;51.208;4.432;2022-07-23T06:23:01;3.83;;;2.60;;
25299;SDS011;13241;51.208;4.432;2022-07-23T06:25:28;5.80;;;2.75;;
25299;SDS011;13241;51.208;4.432;2022-07-23T06:27:55;4.72;;;2.97;;
25299;SDS011;13241;51.208;4.432;2022-07-23T06:30:22;4.25;;;2.70;;
25299;SDS011;13241;51.208;4.432;2022-07-23T06:32:50;4.82;;;2.78;;
25299;SDS011;13241;51.208;4.432;2022-07-23T06:35:17;2.80;;;2.15;;
25299;SDS011;13241;51.208;4.432;2022-07-23T06:37:46;4.18;;;2.50;;
25299;SDS011;13241;51.208;4.432;2022-07-23T06:40:14;5.47;;;2.85;;
25299;SDS011;13241;51.208;4.432;2022-07-23T06:42:41;4.80;;;2.90;;
25299;SDS011;13241;51.208;4.432;2022-07-23T06:47:42;4.55;;;2.53;;
25299;SDS011;13241;51.208;4.432;2022-07-23T06:50:09;6.80;;;2.55;;
25299;SDS011;13241;51.208;4.432;2022-07-23T06:52:36;8.45;;;3.53;;
25299;SDS011;13241;51.208;4.432;2022-07-23T06:55:08;9.18;;;3.17;;
25299;SDS011;13241;51.208;4.432;2022-07-23T06:57:35;4.35;;;2.08;;
25299;SDS011;13241;51.208;4.432;2022-07-23T07:00:03;4.35;;;2.20;;
25299;SDS011;13241;51.208;4.432;2022-07-23T07:02:30;4.95;;;2.17;;
25299;SDS011;13241;51.208;4.432;2022-07-23T07:04:57;5.47;;;2.22;;
25299;SDS011;13241;51.208;4.432;2022-07-23T07:09:57;2.38;;;1.83;;
25299;SDS011;13241;51.208;4.432;2022-07-23T07:12:24;5.45;;;2.55;;
25299;SDS011;13241;51.208;4.432;2022-07-23T07:14:51;2.50;;;1.83;;
25299;SDS011;13241;51.208;4.432;2022-07-23T07:17:19;3.55;;;1.83;;
25299;SDS011;13241;51.208;4.432;2022-07-23T07:19:46;2.08;;;1.42;;
25299;SDS011;13241;51.208;4.432;2022-07-23T07:22:14;7.82;;;2.15;;
25299;SDS011;13241;51.208;4.432;2022-07-23T07:24:41;4.65;;;2.63;;
25299;SDS011;13241;51.208;4.432;2022-07-23T07:27:08;6.97;;;2.70;;
25299;SDS011;13241;51.208;4.432;2022-07-23T07:29:34;3.58;;;2.28;;
25299;SDS011;13241;51.208;4.432;2022-07-23T07:32:01;6.00;;;2.55;;
25299;SDS011;13241;51.208;4.432;2022-07-23T07:34:28;4.78;;;2.00;;
25299;SDS011;13241;51.208;4.432;2022-07-23T07:36:55;3.42;;;2.10;;
25299;SDS011;13241;51.208;4.432;2022-07-23T07:39:22;5.50;;;2.20;;
25299;SDS011;13241;51.208;4.432;2022-07-23T07:41:49;6.40;;;2.58;;
25299;SDS011;13241;51.208;4.432;2022-07-23T07:44:16;6.10;;;2.80;;
25299;SDS011;13241;51.208;4.432;2022-07-23T07:46:43;5.10;;;2.47;;
25299;SDS011;13241;51.208;4.432;2022-07-23T07:49:10;8.02;;;2.63;;
25299;SDS011;13241;51.208;4.432;2022-07-23T07:51:41;5.50;;;2.97;;
25299;SDS011;13241;51.208;4.432;2022-07-23T07:54:10;4.20;;;2.35;;
25299;SDS011;13241;51.208;4.432;2022-07-23T07:56:39;5.65;;;2.38;;
25299;SDS011;13241;51.208;4.432;2022-07-23T07:59:06;3.17;;;2.33;;
25299;SDS011;13241;51.208;4.432;2022-07-23T08:01:33;3.97;;;2.10;;
25299;SDS011;13241;51.208;4.432;2022-07-23T08:04:00;7.53;;;2.45;;
25299;SDS011;13241;51.208;4.432;2022-07-23T08:06:27;6.03;;;2.63;;
25299;SDS011;13241;51.208;4.432;2022-07-23T08:08:54;4.75;;;2.20;;
25299;SDS011;13241;51.208;4.432;2022-07-23T08:11:21;4.95;;;2.67;;
25299;SDS011;13241;51.208;4.432;2022-07-23T08:13:48;5.95;;;2.67;;
25299;SDS011;13241;51.208;4.432;2022-07-23T08:16:15;9.55;;;3.28;;
25299;SDS011;13241;51.208;4.432;2022-07-23T08:18:42;6.10;;;2.88;;
25299;SDS011;13241;51.208;4.432;2022-07-23T08:21:09;3.15;;;2.03;;
25299;SDS011;13241;51.208;4.432;2022-07-23T08:23:37;5.53;;;2.72;;
25299;SDS011;13241;51.208;4.432;2022-07-23T08:26:04;8.25;;;2.65;;
25299;SDS011;13241;51.208;4.432;2022-07-23T08:28:31;4.57;;;2.50;;
25299;SDS011;13241;51.208;4.432;2022-07-23T08:30:59;4.60;;;2.65;;
25299;SDS011;13241;51.208;4.432;2022-07-23T08:33:26;5.63;;;2.00;;
25299;SDS011;13241;51.208;4.432;2022-07-23T08:36:00;3.70;;;2.08;;
25299;SDS011;13241;51.208;4.432;2022-07-23T08:38:30;6.18;;;2.60;;
25299;SDS011;13241;51.208;4.432;2022-07-23T08:40:57;9.75;;;2.30;;
25299;SDS011;13241;51.208;4.432;2022-07-23T08:43:25;3.25;;;2.08;;
25299;SDS011;13241;51.208;4.432;2022-07-23T08:45:55;16.63;;;3.28;;
25299;SDS011;13241;51.208;4.432;2022-07-23T08:48:33;6.25;;;2.95;;
25299;SDS011;13241;51.208;4.432;2022-07-23T08:51:05;5.30;;;2.53;;
25299;SDS011;13241;51.208;4.432;2022-07-23T08:53:33;5.80;;;2.63;;
25299;SDS011;13241;51.208;4.432;2022-07-23T08:56:05;3.35;;;1.70;;
25299;SDS011;13241;51.208;4.432;2022-07-23T08:58:33;6.97;;;2.95;;
25299;SDS011;13241;51.208;4.432;2022-07-23T09:01:01;4.88;;;2.05;;
25299;SDS011;13241;51.208;4.432;2022-07-23T09:03:29;4.78;;;2.58;;
25299;SDS011;13241;51.208;4.432;2022-07-23T09:06:02;3.78;;;2.20;;
25299;SDS011;13241;51.208;4.432;2022-07-23T09:08:37;5.60;;;2.65;;
25299;SDS011;13241;51.208;4.432;2022-07-23T09:11:09;4.30;;;2.25;;
25299;SDS011;13241;51.208;4.432;2022-07-23T09:18:43;7.45;;;2.20;;
25299;SDS011;13241;51.208;4.432;2022-07-23T09:21:22;4.95;;;2.13;;
25299;SDS011;13241;51.208;4.432;2022-07-23T09:26:36;4.88;;;2.40;;
25299;SDS011;13241;51.208;4.432;2022-07-23T09:29:12;5.22;;;2.35;;
25299;SDS011;13241;51.208;4.432;2022-07-23T09:31:59;2.92;;;2.30;;
25299;SDS011;13241;51.208;4.432;2022-07-23T09:34:35;4.40;;;2.13;;
25299;SDS011;13241;51.208;4.432;2022-07-23T09:37:14;3.25;;;2.22;;
25299;SDS011;13241;51.208;4.432;2022-07-23T09:39:42;4.30;;;1.83;;
25299;SDS011;13241;51.208;4.432;2022-07-23T09:44:51;4.20;;;2.70;;
25299;SDS011;13241;51.208;4.432;2022-07-23T09:47:20;6.78;;;2.47;;
25299;SDS011;13241;51.208;4.432;2022-07-23T09:52:35;2.60;;;1.92;;
25299;SDS011;13241;51.208;4.432;2022-07-23T09:55:09;6.13;;;2.58;;
25299;SDS011;13241;51.208;4.432;2022-07-23T09:57:37;4.70;;;2.03;;
25299;SDS011;13241;51.208;4.432;2022-07-23T10:00:07;10.20;;;2.97;;
25299;SDS011;13241;51.208;4.432;2022-07-23T10:02:37;4.50;;;2.80;;
25299;SDS011;13241;51.208;4.432;2022-07-23T10:05:23;2.55;;;2.03;;
25299;SDS011;13241;51.208;4.432;2022-07-23T10:08:26;4.00;;;2.22;;
25299;SDS011;13241;51.208;4.432;2022-07-23T10:11:35;2.60;;;1.98;;
25299;SDS011;13241;51.208;4.432;2022-07-23T10:16:56;3.42;;;1.83;;
25299;SDS011;13241;51.208;4.432;2022-07-23T10:19:23;5.78;;;2.10;;
25299;SDS011;13241;51.208;4.432;2022-07-23T10:21:52;2.70;;;2.03;;
25299;SDS011;13241;51.208;4.432;2022-07-23T10:38:24;3.50;;;1.40;;
25299;SDS011;13241;51.208;4.432;2022-07-23T10:40:58;3.13;;;1.60;;
25299;SDS011;13241;51.208;4.432;2022-07-23T10:43:26;5.05;;;2.00;;
25299;SDS011;13241;51.208;4.432;2022-07-23T10:45:55;2.33;;;1.50;;
25299;SDS011;13241;51.208;4.432;2022-07-23T10:48:23;3.03;;;1.90;;
25299;SDS011;13241;51.208;4.432;2022-07-23T10:51:06;2.95;;;1.58;;
25299;SDS011;13241;51.208;4.432;2022-07-23T10:59:21;2.90;;;1.20;;
25299;SDS011;13241;51.208;4.432;2022-07-23T11:01:48;1.02;;;0.65;;
25299;SDS011;13241;51.208;4.432;2022-07-23T11:04:18;4.22;;;1.88;;
25299;SDS011;13241;51.208;4.432;2022-07-23T11:09:25;3.50;;;1.65;;
25299;SDS011;13241;51.208;4.432;2022-07-23T11:12:41;5.32;;;2.05;;
25299;SDS011;13241;51.208;4.432;2022-07-23T11:17:31;1.00;;;0.90;;
25299;SDS011;13241;51.208;4.432;2022-07-23T11:25:29;1.67;;;0.90;;
25299;SDS011;13241;51.208;4.432;2022-07-23T11:30:38;1.38;;;0.70;;
25299;SDS011;13241;51.208;4.432;2022-07-23T11:35:37;2.30;;;1.30;;
25299;SDS011;13241;51.208;4.432;2022-07-23T11:38:17;1.67;;;1.00;;
25299;SDS011;13241;51.208;4.432;2022-07-23T11:40:45;2.05;;;1.13;;
25299;SDS011;13241;51.208;4.432;2022-07-23T11:43:24;2.63;;;1.20;;
25299;SDS011;13241;51.208;4.432;2022-07-23T11:45:52;3.05;;;1.08;;
25299;SDS011;13241;51.208;4.432;2022-07-23T11:50:52;1.25;;;1.05;;
25299;SDS011;13241;51.208;4.432;2022-07-23T11:53:24;1.95;;;0.90;;
25299;SDS011;13241;51.208;4.432;2022-07-23T11:56:08;1.33;;;0.80;;
25299;SDS011;13241;51.208;4.432;2022-07-23T11:58:37;1.10;;;0.95;;
25299;SDS011;13241;51.208;4.432;2022-07-23T12:01:06;1.33;;;1.00;;
25299;SDS011;13241;51.208;4.432;2022-07-23T12:03:48;1.73;;;0.88;;
25299;SDS011;13241;51.208;4.432;2022-07-23T12:06:17;1.75;;;1.27;;
25299;SDS011;13241;51.208;4.432;2022-07-23T12:08:44;2.20;;;1.42;;
25299;SDS011;13241;51.208;4.432;2022-07-23T12:11:12;1.63;;;1.20;;
25299;SDS011;13241;51.208;4.432;2022-07-23T12:13:39;4.70;;;1.30;;
25299;SDS011;13241;51.208;4.432;2022-07-23T12:16:07;5.35;;;1.20;;
25299;SDS011;13241;51.208;4.432;2022-07-23T12:18:34;2.97;;;1.02;;
25299;SDS011;13241;51.208;4.432;2022-07-23T12:21:03;1.17;;;0.80;;
25299;SDS011;13241;51.208;4.432;2022-07-23T12:23:33;2.28;;;1.00;;
25299;SDS011;13241;51.208;4.432;2022-07-23T12:26:03;1.80;;;1.30;;
25299;SDS011;13241;51.208;4.432;2022-07-23T12:28:31;2.88;;;1.92;;
25299;SDS011;13241;51.208;4.432;2022-07-23T12:30:59;1.77;;;1.00;;
25299;SDS011;13241;51.208;4.432;2022-07-23T12:35:57;2.13;;;1.15;;
25299;SDS011;13241;51.208;4.432;2022-07-23T12:38:25;3.17;;;1.50;;
25299;SDS011;13241;51.208;4.432;2022-07-23T12:40:57;1.73;;;1.23;;
25299;SDS011;13241;51.208;4.432;2022-07-23T12:43:27;1.13;;;0.93;;
25299;SDS011;13241;51.208;4.432;2022-07-23T12:48:26;1.52;;;1.10;;
25299;SDS011;13241;51.208;4.432;2022-07-23T12:56:01;2.55;;;1.17;;
25299;SDS011;13241;51.208;4.432;2022-07-23T13:01:21;1.40;;;0.98;;
25299;SDS011;13241;51.208;4.432;2022-07-23T13:04:05;3.22;;;1.27;;
25299;SDS011;13241;51.208;4.432;2022-07-23T13:06:45;0.88;;;0.80;;
25299;SDS011;13241;51.208;4.432;2022-07-23T13:09:17;1.63;;;1.10;;
25299;SDS011;13241;51.208;4.432;2022-07-23T13:11:46;0.90;;;0.77;;
25299;SDS011;13241;51.208;4.432;2022-07-23T13:14:15;2.40;;;1.15;;
25299;SDS011;13241;51.208;4.432;2022-07-23T13:16:47;2.95;;;1.60;;
25299;SDS011;13241;51.208;4.432;2022-07-23T13:19:16;2.85;;;1.23;;
25299;SDS011;13241;51.208;4.432;2022-07-23T13:21:44;1.77;;;1.10;;
25299;SDS011;13241;51.208;4.432;2022-07-23T13:24:12;4.05;;;1.20;;
25299;SDS011;13241;51.208;4.432;2022-07-23T13:26:39;1.27;;;0.93;;
25299;SDS011;13241;51.208;4.432;2022-07-23T13:29:06;2.75;;;1.15;;
25299;SDS011;13241;51.208;4.432;2022-07-23T13:31:35;3.75;;;1.10;;
25299;SDS011;13241;51.208;4.432;2022-07-23T13:34:04;2.45;;;0.90;;
25299;SDS011;13241;51.208;4.432;2022-07-23T13:36:33;1.40;;;1.00;;
25299;SDS011;13241;51.208;4.432;2022-07-23T13:39:02;4.75;;;1.17;;
25299;SDS011;13241;51.208;4.432;2022-07-23T13:41:33;2.90;;;1.55;;
25299;SDS011;13241;51.208;4.432;2022-07-23T13:44:01;0.93;;;0.80;;
25299;SDS011;13241;51.208;4.432;2022-07-23T13:46:29;1.42;;;1.00;;
25299;SDS011;13241;51.208;4.432;2022-07-23T13:48:56;2.30;;;1.10;;
25299;SDS011;13241;51.208;4.432;2022-07-23T13:51:25;2.92;;;1.65;;
25299;SDS011;13241;51.208;4.432;2022-07-23T13:53:54;1.95;;;1.45;;
25299;SDS011;13241;51.208;4.432;2022-07-23T13:56:20;4.60;;;1.67;;
25299;SDS011;13241;51.208;4.432;2022-07-23T13:58:47;4.95;;;1.25;;
25299;SDS011;13241;51.208;4.432;2022-07-23T14:01:14;2.38;;;1.60;;
25299;SDS011;13241;51.208;4.432;2022-07-23T14:03:43;1.45;;;1.17;;
25299;SDS011;13241;51.208;4.432;2022-07-23T14:06:11;2.25;;;1.83;;
25299;SDS011;13241;51.208;4.432;2022-07-23T14:08:45;2.55;;;1.35;;
25299;SDS011;13241;51.208;4.432;2022-07-23T14:11:13;3.53;;;1.52;;
25299;SDS011;13241;51.208;4.432;2022-07-23T14:13:40;4.05;;;1.40;;
25299;SDS011;13241;51.208;4.432;2022-07-23T14:16:07;1.52;;;1.25;;
25299;SDS011;13241;51.208;4.432;2022-07-23T14:18:34;3.17;;;1.50;;
25299;SDS011;13241;51.208;4.432;2022-07-23T14:21:03;1.10;;;1.00;;
25299;SDS011;13241;51.208;4.432;2022-07-23T14:23:32;2.47;;;1.45;;
25299;SDS011;13241;51.208;4.432;2022-07-23T14:26:00;2.88;;;1.38;;
25299;SDS011;13241;51.208;4.432;2022-07-23T14:28:29;1.85;;;1.58;;
25299;SDS011;13241;51.208;4.432;2022-07-23T14:30:59;2.72;;;1.58;;
25299;SDS011;13241;51.208;4.432;2022-07-23T14:33:27;2.35;;;1.35;;
25299;SDS011;13241;51.208;4.432;2022-07-23T14:35:54;3.30;;;1.80;;
25299;SDS011;13241;51.208;4.432;2022-07-23T14:38:21;2.75;;;1.40;;
25299;SDS011;13241;51.208;4.432;2022-07-23T14:40:48;2.45;;;1.42;;
25299;SDS011;13241;51.208;4.432;2022-07-23T14:43:15;2.42;;;1.63;;
25299;SDS011;13241;51.208;4.432;2022-07-23T14:45:42;4.20;;;2.38;;
25299;SDS011;13241;51.208;4.432;2022-07-23T14:48:12;1.50;;;1.38;;
25299;SDS011;13241;51.208;4.432;2022-07-23T14:50:48;2.05;;;1.55;;
25299;SDS011;13241;51.208;4.432;2022-07-23T14:53:14;3.17;;;1.73;;
25299;SDS011;13241;51.208;4.432;2022-07-23T14:55:48;2.03;;;1.27;;
25299;SDS011;13241;51.208;4.432;2022-07-23T14:58:15;1.85;;;1.63;;
25299;SDS011;13241;51.208;4.432;2022-07-23T15:00:43;2.47;;;1.60;;
25299;SDS011;13241;51.208;4.432;2022-07-23T15:03:11;2.50;;;1.67;;
25299;SDS011;13241;51.208;4.432;2022-07-23T15:05:38;3.25;;;1.85;;
25299;SDS011;13241;51.208;4.432;2022-07-23T15:08:05;7.30;;;1.85;;
25299;SDS011;13241;51.208;4.432;2022-07-23T15:10:35;2.13;;;1.70;;
25299;SDS011;13241;51.208;4.432;2022-07-23T15:13:04;4.15;;;1.60;;
25299;SDS011;13241;51.208;4.432;2022-07-23T15:15:34;3.78;;;1.90;;
25299;SDS011;13241;51.208;4.432;2022-07-23T15:18:01;7.22;;;1.63;;
25299;SDS011;13241;51.208;4.432;2022-07-23T15:20:28;2.63;;;1.60;;
25299;SDS011;13241;51.208;4.432;2022-07-23T15:23:06;3.50;;;1.88;;
25299;SDS011;13241;51.208;4.432;2022-07-23T15:25:35;2.10;;;1.52;;
25299;SDS011;13241;51.208;4.432;2022-07-23T15:28:03;2.58;;;1.80;;
25299;SDS011;13241;51.208;4.432;2022-07-23T15:30:33;3.67;;;1.67;;
25299;SDS011;13241;51.208;4.432;2022-07-23T15:33:03;4.05;;;2.13;;
25299;SDS011;13241;51.208;4.432;2022-07-23T15:35:32;2.88;;;1.70;;
25299;SDS011;13241;51.208;4.432;2022-07-23T15:37:59;1.80;;;1.60;;
25299;SDS011;13241;51.208;4.432;2022-07-23T15:40:32;4.35;;;2.38;;
25299;SDS011;13241;51.208;4.432;2022-07-23T15:43:00;2.22;;;1.75;;
25299;SDS011;13241;51.208;4.432;2022-07-23T15:45:27;3.42;;;1.95;;
25299;SDS011;13241;51.208;4.432;2022-07-23T15:47:56;4.75;;;2.05;;
25299;SDS011;13241;51.208;4.432;2022-07-23T15:50:24;5.05;;;1.73;;
25299;SDS011;13241;51.208;4.432;2022-07-23T15:52:51;3.13;;;1.88;;
25299;SDS011;13241;51.208;4.432;2022-07-23T15:55:18;2.25;;;1.60;;
25299;SDS011;13241;51.208;4.432;2022-07-23T15:57:45;2.75;;;1.58;;
25299;SDS011;13241;51.208;4.432;2022-07-23T16:00:12;2.53;;;1.60;;
25299;SDS011;13241;51.208;4.432;2022-07-23T16:02:39;3.05;;;1.98;;
25299;SDS011;13241;51.208;4.432;2022-07-23T16:05:06;3.05;;;1.98;;
25299;SDS011;13241;51.208;4.432;2022-07-23T16:07:34;3.53;;;1.75;;
25299;SDS011;13241;51.208;4.432;2022-07-23T16:10:04;2.58;;;1.83;;
25299;SDS011;13241;51.208;4.432;2022-07-23T16:12:32;3.50;;;2.00;;
25299;SDS011;13241;51.208;4.432;2022-07-23T16:14:59;2.05;;;1.73;;